createdAt,value
2022-11-14T00:01:21.362Z,7.20
2022-11-14T00:03:51.988Z,7.25
2022-11-14T00:06:19.801Z,7.21
2022-11-14T00:08:47.375Z,7.21
2022-11-14T00:11:15.048Z,7.21
2022-11-14T00:13:42.718Z,7.23
2022-11-14T00:16:10.356Z,7.22
2022-11-14T00:18:38.029Z,7.18
2022-11-14T00:21:05.751Z,7.20
2022-11-14T00:23:33.393Z,7.18
2022-11-14T00:26:01.013Z,7.21
2022-11-14T00:28:28.985Z,7.27
2022-11-14T00:30:56.811Z,7.31
2022-11-14T00:33:24.552Z,7.32
2022-11-14T00:35:56.807Z,7.32
2022-11-14T00:38:24.935Z,7.33
2022-11-14T00:40:52.626Z,7.36
2022-11-14T00:43:20.243Z,7.36
2022-11-14T00:45:48.915Z,7.37
2022-11-14T00:48:17.456Z,7.36
2022-11-14T00:50:45.605Z,7.38
2022-11-14T00:53:13.485Z,7.38
2022-11-14T00:55:42.409Z,7.40
2022-11-14T00:58:10.467Z,7.38
2022-11-14T01:00:38.440Z,7.33
2022-11-14T01:03:06.228Z,7.33
2022-11-14T01:05:33.900Z,7.31
2022-11-14T01:08:01.514Z,7.32
2022-11-14T01:10:29.126Z,7.27
2022-11-14T01:12:56.803Z,7.22
2022-11-14T01:15:24.449Z,7.19
2022-11-14T01:17:52.152Z,7.20
2022-11-14T01:20:19.842Z,7.22
2022-11-14T01:22:47.537Z,7.20
2022-11-14T01:25:15.235Z,7.18
2022-11-14T01:27:42.918Z,7.13
2022-11-14T01:30:10.983Z,7.11
2022-11-14T01:32:38.613Z,7.09
2022-11-14T01:35:06.362Z,7.10
2022-11-14T01:37:34.007Z,7.09
2022-11-14T01:40:01.611Z,7.11
2022-11-14T01:42:29.232Z,7.12
2022-11-14T01:44:56.916Z,7.16
2022-11-14T01:47:30.100Z,7.15
2022-11-14T01:50:02.196Z,7.16
2022-11-14T01:52:39.611Z,7.15
2022-11-14T01:55:09.879Z,7.16
2022-11-14T01:57:46.080Z,7.16
2022-11-14T02:00:14.421Z,7.10
2022-11-14T02:02:42.693Z,7.06
2022-11-14T02:05:14.397Z,7.01
2022-11-14T02:07:42.818Z,6.97
2022-11-14T02:10:16.932Z,6.94
2022-11-14T02:12:45.740Z,6.93
2022-11-14T02:15:15.481Z,6.93
2022-11-14T02:17:45.009Z,6.93
2022-11-14T02:20:12.933Z,6.92
2022-11-14T02:22:42.428Z,6.90
2022-11-14T02:25:14.029Z,6.92
2022-11-14T02:27:42.631Z,6.92
2022-11-14T02:30:17.361Z,6.89
2022-11-14T02:35:32.676Z,6.83
2022-11-14T02:38:00.337Z,6.81
2022-11-14T02:40:28.032Z,6.78
2022-11-14T02:42:55.619Z,6.78
2022-11-14T02:45:23.530Z,6.78
2022-11-14T02:47:51.335Z,6.73
2022-11-14T02:50:19.453Z,6.73
2022-11-14T02:52:47.046Z,6.67
2022-11-14T02:55:14.624Z,6.67
2022-11-14T02:57:42.272Z,6.67
2022-11-14T03:00:14.830Z,6.67
2022-11-14T03:02:42.682Z,6.67
2022-11-14T03:05:10.523Z,6.67
2022-11-14T03:07:38.231Z,6.64
2022-11-14T03:10:06.731Z,6.64
2022-11-14T03:12:34.438Z,6.62
2022-11-14T03:15:02.048Z,6.60
2022-11-14T03:17:32.995Z,6.58
2022-11-14T03:20:00.662Z,6.59
2022-11-14T03:22:29.111Z,6.57
2022-11-14T03:24:56.748Z,6.59
2022-11-14T03:27:24.411Z,6.59
2022-11-14T03:29:52.127Z,6.58
2022-11-14T03:32:19.749Z,6.57
2022-11-14T03:34:47.438Z,6.59
2022-11-14T03:37:15.061Z,6.62
2022-11-14T03:39:42.747Z,6.61
2022-11-14T03:42:10.728Z,6.60
2022-11-14T03:44:38.325Z,6.61
2022-11-14T03:47:06.131Z,6.60
2022-11-14T03:49:33.896Z,6.59
2022-11-14T03:52:01.520Z,6.59
2022-11-14T03:54:29.135Z,6.55
2022-11-14T03:56:56.751Z,6.54
2022-11-14T03:59:24.381Z,6.56
2022-11-14T04:01:52.067Z,6.55
2022-11-14T04:04:19.691Z,6.54
2022-11-14T04:06:47.427Z,6.59
2022-11-14T04:09:15.429Z,6.57
2022-11-14T04:11:43.153Z,6.59
2022-11-14T04:14:11.388Z,6.58
2022-11-14T04:16:39.049Z,6.60
2022-11-14T04:19:06.698Z,6.63
2022-11-14T04:21:34.311Z,6.68
2022-11-14T04:24:04.808Z,6.73
2022-11-14T04:26:34.732Z,6.73
2022-11-14T04:29:02.468Z,6.79
2022-11-14T04:31:30.163Z,6.84
2022-11-14T04:33:57.808Z,6.90
2022-11-14T04:36:25.427Z,6.94
2022-11-14T04:38:53.044Z,6.94
2022-11-14T04:41:20.685Z,6.93
2022-11-14T04:43:50.931Z,6.92
2022-11-14T04:46:18.825Z,6.91
2022-11-14T04:48:46.516Z,6.90
2022-11-14T04:51:14.132Z,6.88
2022-11-14T04:53:41.935Z,6.86
2022-11-14T04:56:09.628Z,6.84
2022-11-14T04:58:37.255Z,6.84
2022-11-14T05:01:12.400Z,6.85
2022-11-14T05:03:40.059Z,6.87
2022-11-14T05:06:07.941Z,6.88
2022-11-14T05:08:35.653Z,6.88
2022-11-14T05:11:03.314Z,6.88
2022-11-14T05:13:31.357Z,6.87
2022-11-14T05:16:02.514Z,6.90
2022-11-14T05:18:30.505Z,6.90
2022-11-14T05:21:02.283Z,6.88
2022-11-14T05:23:30.480Z,6.89
2022-11-14T05:26:16.655Z,6.91
2022-11-14T05:28:44.427Z,6.95
2022-11-14T05:31:14.793Z,6.96
2022-11-14T05:33:42.454Z,6.96
2022-11-14T05:36:12.644Z,7.02
2022-11-14T05:38:40.397Z,7.05
2022-11-14T05:41:09.976Z,7.05
2022-11-14T05:43:38.137Z,7.05
2022-11-14T05:46:08.321Z,7.07
2022-11-14T05:48:35.956Z,7.08
2022-11-14T05:51:05.878Z,7.12
2022-11-14T05:53:37.049Z,7.15
2022-11-14T05:56:07.611Z,7.18
2022-11-14T05:58:36.345Z,7.20
2022-11-14T06:01:12.735Z,7.21
2022-11-14T06:03:45.575Z,7.21
2022-11-14T06:06:19.057Z,7.20
2022-11-14T06:08:47.396Z,7.25
2022-11-14T06:11:20.814Z,7.27
2022-11-14T06:13:49.120Z,7.28
2022-11-14T06:16:19.636Z,7.29
2022-11-14T06:18:47.403Z,7.31
2022-11-14T06:21:16.940Z,7.31
2022-11-14T06:23:45.327Z,7.33
2022-11-14T06:26:32.718Z,7.37
2022-11-14T06:29:01.678Z,7.38
2022-11-14T06:31:29.635Z,7.43
2022-11-14T06:33:58.032Z,7.45
2022-11-14T06:36:25.705Z,7.49
2022-11-14T06:38:53.384Z,7.48
2022-11-14T06:41:23.055Z,7.50
2022-11-14T06:43:52.529Z,7.46
2022-11-14T06:46:22.586Z,7.49
2022-11-14T06:48:51.501Z,7.52
2022-11-14T06:51:20.259Z,7.58
2022-11-14T06:53:48.059Z,7.55
2022-11-14T06:56:17.577Z,7.51
2022-11-14T06:58:48.290Z,7.49
2022-11-14T07:01:18.963Z,7.49
2022-11-14T07:03:47.631Z,7.46
2022-11-14T07:06:20.776Z,7.39
2022-11-14T07:08:48.592Z,7.46
2022-11-14T07:11:23.902Z,7.53
2022-11-14T07:13:55.479Z,7.58
2022-11-14T07:16:30.592Z,7.62
2022-11-14T07:19:02.184Z,7.68
2022-11-14T07:21:31.102Z,7.70
2022-11-14T07:23:59.302Z,7.71
2022-11-14T07:26:28.285Z,7.70
2022-11-14T07:29:01.791Z,7.72
2022-11-14T07:31:29.997Z,7.73
2022-11-14T07:33:57.635Z,7.75
2022-11-14T07:36:25.637Z,7.73
2022-11-14T07:38:53.335Z,7.74
2022-11-14T07:41:21.058Z,7.71
2022-11-14T07:43:48.738Z,7.70
2022-11-14T07:46:18.491Z,7.69
2022-11-14T07:48:46.539Z,7.59
2022-11-14T07:51:19.672Z,7.49
2022-11-14T07:53:47.424Z,7.49
2022-11-14T07:56:15.416Z,7.44
2022-11-14T07:58:43.690Z,7.43
2022-11-14T08:01:13.417Z,7.44
2022-11-14T08:03:45.625Z,7.43
2022-11-14T08:06:16.349Z,7.41
2022-11-14T08:08:44.342Z,7.37
2022-11-14T08:11:12.838Z,7.33
2022-11-14T08:13:40.449Z,7.33
2022-11-14T08:16:13.415Z,7.31
2022-11-14T08:18:41.977Z,7.29
2022-11-14T08:21:09.941Z,7.29
2022-11-14T08:23:37.708Z,7.30
2022-11-14T08:26:05.462Z,7.24
2022-11-14T08:28:33.366Z,7.21
2022-11-14T08:31:05.510Z,7.21
2022-11-14T08:33:33.529Z,7.25
2022-11-14T08:36:05.756Z,7.25
2022-11-14T08:38:34.565Z,7.30
2022-11-14T08:41:04.173Z,7.32
2022-11-14T08:43:33.541Z,7.34
2022-11-14T08:46:04.909Z,7.37
2022-11-14T08:48:33.954Z,7.38
2022-11-14T08:51:06.940Z,7.37
2022-11-14T08:53:35.249Z,7.40
2022-11-14T08:56:03.232Z,7.45
2022-11-14T08:58:34.442Z,7.52
2022-11-14T09:01:07.725Z,7.60
2022-11-14T09:03:35.720Z,7.60
2022-11-14T09:06:04.117Z,7.63
2022-11-14T09:08:32.422Z,7.64
2022-11-14T09:11:05.964Z,7.64
2022-11-14T09:13:37.077Z,7.66
2022-11-14T09:16:04.813Z,7.68
2022-11-14T09:18:33.889Z,7.71
2022-11-14T09:21:07.274Z,7.67
2022-11-14T09:23:35.980Z,7.63
2022-11-14T09:26:08.957Z,7.58
2022-11-14T09:28:37.741Z,7.56
2022-11-14T09:31:08.711Z,7.54
2022-11-14T09:33:37.058Z,7.53
2022-11-14T09:36:08.199Z,7.51
2022-11-14T09:38:38.771Z,7.52
2022-11-14T09:41:09.762Z,7.54
2022-11-14T09:44:04.075Z,7.59
2022-11-14T09:46:40.298Z,7.64
2022-11-14T09:49:28.652Z,7.72
2022-11-14T09:52:04.741Z,7.80
2022-11-14T09:54:59.452Z,7.86
2022-11-14T09:57:27.805Z,7.93
2022-11-14T09:59:57.013Z,7.97
2022-11-14T10:02:56.732Z,8.05
2022-11-14T10:05:34.031Z,8.11
2022-11-14T10:08:29.392Z,8.16
2022-11-14T10:11:08.843Z,8.21
2022-11-14T10:14:06.179Z,8.27
2022-11-14T10:16:49.162Z,8.36
2022-11-14T10:19:42.507Z,8.42
2022-11-14T10:22:28.721Z,8.51
2022-11-14T10:25:25.704Z,8.56
2022-11-14T10:28:17.834Z,8.64
2022-11-14T10:31:30.475Z,8.72
2022-11-14T10:34:22.988Z,8.82
2022-11-14T10:36:59.657Z,8.88
2022-11-14T10:39:33.122Z,8.91
2022-11-14T10:42:09.372Z,8.98
2022-11-14T10:44:57.954Z,9.03
2022-11-14T10:47:29.036Z,9.10
2022-11-14T10:50:01.341Z,9.14
2022-11-14T10:52:41.132Z,9.15
2022-11-14T10:55:15.518Z,9.19
2022-11-14T10:57:45.171Z,9.24
2022-11-14T11:00:19.436Z,9.24
2022-11-14T11:02:51.539Z,9.28
2022-11-14T11:05:20.931Z,9.31
2022-11-14T11:08:36.053Z,9.32
2022-11-14T11:11:19.110Z,9.36
2022-11-14T11:13:56.934Z,9.37
2022-11-14T11:16:27.080Z,9.40
2022-11-14T11:18:54.942Z,9.42
2022-11-14T11:21:24.541Z,9.41
2022-11-14T11:23:56.978Z,9.44
2022-11-14T11:26:26.292Z,9.47
2022-11-14T11:29:12.182Z,9.51
2022-11-14T11:31:48.736Z,9.54
2022-11-14T11:34:17.100Z,9.62
2022-11-14T11:36:51.139Z,9.71
2022-11-14T11:39:27.642Z,9.77
2022-11-14T11:42:14.525Z,9.86
2022-11-14T11:44:47.932Z,9.95
2022-11-14T11:47:19.701Z,10.03
2022-11-14T11:49:53.875Z,10.10
2022-11-14T11:52:31.182Z,10.17
2022-11-14T11:55:14.500Z,10.20
2022-11-14T11:57:49.003Z,10.26
2022-11-14T12:00:22.228Z,10.27
2022-11-14T12:02:53.375Z,10.30
2022-11-14T12:05:38.456Z,10.35
2022-11-14T12:08:13.278Z,10.34
2022-11-14T12:10:43.768Z,10.38
2022-11-14T12:13:26.600Z,10.42
2022-11-14T12:16:20.667Z,10.46
2022-11-14T12:18:48.213Z,10.54
2022-11-14T12:21:52.013Z,10.62
2022-11-14T12:24:32.880Z,10.73
2022-11-14T12:27:12.516Z,10.78
2022-11-14T12:29:55.133Z,10.86
2022-11-14T12:32:42.728Z,10.95
2022-11-14T12:35:34.653Z,11.06
2022-11-14T12:38:06.152Z,11.14
2022-11-14T12:40:36.939Z,11.23
2022-11-14T12:43:07.877Z,11.28
2022-11-14T12:45:41.204Z,11.35
2022-11-14T12:48:28.552Z,11.41
2022-11-14T12:50:57.613Z,11.45
2022-11-14T12:53:37.016Z,11.50
2022-11-14T12:56:30.684Z,11.54
2022-11-14T12:59:10.471Z,11.55
2022-11-14T13:01:53.132Z,11.58
2022-11-14T13:04:47.286Z,11.61
2022-11-14T13:07:34.282Z,11.61
2022-11-14T13:10:14.840Z,11.62
2022-11-14T13:13:02.855Z,11.66
2022-11-14T13:15:52.393Z,11.67
2022-11-14T13:18:45.105Z,11.69
2022-11-14T13:21:42.327Z,11.70
2022-11-14T13:24:17.378Z,11.71
2022-11-14T13:26:47.435Z,11.72
2022-11-14T13:29:39.934Z,11.70
2022-11-14T13:32:13.836Z,11.68
2022-11-14T13:34:50.534Z,11.62
2022-11-14T13:37:55.930Z,11.58
2022-11-14T13:40:34.415Z,11.56
2022-11-14T13:43:40.601Z,11.57
2022-11-14T13:46:31.131Z,11.55
2022-11-14T13:49:19.189Z,11.55
2022-11-14T13:51:47.963Z,11.55
2022-11-14T13:54:18.485Z,11.55
2022-11-14T13:56:46.476Z,11.56
2022-11-14T13:59:36.812Z,11.53
2022-11-14T14:02:13.548Z,11.51
2022-11-14T14:05:05.273Z,11.54
2022-11-14T14:07:55.403Z,11.58
2022-11-14T14:10:49.476Z,11.56
2022-11-14T14:13:35.468Z,11.57
2022-11-14T14:16:29.186Z,11.55
2022-11-14T14:19:18.704Z,11.57
2022-11-14T14:22:02.052Z,11.58
2022-11-14T14:24:45.025Z,11.55
2022-11-14T14:27:22.425Z,11.55
2022-11-14T14:30:28.341Z,11.57
2022-11-14T14:33:08.147Z,11.57
2022-11-14T14:35:40.672Z,11.57
2022-11-14T14:38:23.859Z,11.57
2022-11-14T14:40:51.913Z,11.56
2022-11-14T14:43:32.579Z,11.55
2022-11-14T14:46:00.752Z,11.55
2022-11-14T14:48:32.074Z,11.53
2022-11-14T14:51:01.481Z,11.52
2022-11-14T14:53:32.436Z,11.51
2022-11-14T14:56:05.583Z,11.49
2022-11-14T14:58:35.758Z,11.43
2022-11-14T15:01:13.790Z,11.39
2022-11-14T15:03:49.326Z,11.35
2022-11-14T15:06:32.346Z,11.29
2022-11-14T15:09:14.985Z,11.25
2022-11-14T15:11:45.454Z,11.18
2022-11-14T15:14:25.942Z,11.14
2022-11-14T15:16:54.393Z,11.11
2022-11-14T15:19:25.824Z,11.06
2022-11-14T15:22:21.459Z,11.02
2022-11-14T15:25:14.467Z,11.00
2022-11-14T15:27:54.396Z,10.97
2022-11-14T15:30:35.607Z,10.95
2022-11-14T15:33:24.448Z,10.92
2022-11-14T15:36:10.151Z,10.89
2022-11-14T15:38:45.909Z,10.88
2022-11-14T15:41:24.994Z,10.87
2022-11-14T15:43:54.786Z,10.85
2022-11-14T15:46:38.891Z,10.81
2022-11-14T15:49:15.343Z,10.78
2022-11-14T15:52:01.733Z,10.75
2022-11-14T15:54:37.588Z,10.71
2022-11-14T15:57:23.501Z,10.68
2022-11-14T15:59:51.167Z,10.59
2022-11-14T16:02:25.643Z,10.56
2022-11-14T16:04:54.468Z,10.49
2022-11-14T16:07:23.081Z,10.44
2022-11-14T16:09:51.280Z,10.41
2022-11-14T16:12:19.074Z,10.37
2022-11-14T16:14:46.929Z,10.33
2022-11-14T16:17:18.940Z,10.31
2022-11-14T16:19:46.588Z,10.28
2022-11-14T16:22:17.982Z,10.27
2022-11-14T16:24:45.703Z,10.25
2022-11-14T16:27:13.389Z,10.25
2022-11-14T16:29:41.040Z,10.24
2022-11-14T16:32:11.555Z,10.24
2022-11-14T16:34:39.287Z,10.24
2022-11-14T16:37:07.289Z,10.26
2022-11-14T16:39:34.881Z,10.26
2022-11-14T16:42:03.713Z,10.27
2022-11-14T16:44:35.803Z,10.29
2022-11-14T16:47:08.030Z,10.27
2022-11-14T16:49:37.939Z,10.26
2022-11-14T16:52:09.567Z,10.29
2022-11-14T16:54:37.343Z,10.30
2022-11-14T16:57:05.020Z,10.30
2022-11-14T16:59:33.209Z,10.32
2022-11-14T17:02:00.884Z,10.34
2022-11-14T17:04:28.519Z,10.34
2022-11-14T17:06:56.238Z,10.35
2022-11-14T17:09:23.910Z,10.34
2022-11-14T17:11:51.603Z,10.35
2022-11-14T17:14:19.232Z,10.35
2022-11-14T17:16:47.721Z,10.38
2022-11-14T17:19:15.507Z,10.37
2022-11-14T17:21:43.976Z,10.35
2022-11-14T17:24:11.862Z,10.32
2022-11-14T17:26:39.739Z,10.30
2022-11-14T17:29:08.047Z,10.25
2022-11-14T17:31:38.331Z,10.24
2022-11-14T17:34:10.458Z,10.19
2022-11-14T17:36:38.161Z,10.14
2022-11-14T17:39:05.806Z,10.09
2022-11-14T17:41:34.680Z,10.02
2022-11-14T17:44:04.584Z,9.88
2022-11-14T17:46:32.443Z,9.77
2022-11-14T17:49:00.524Z,9.74
2022-11-14T17:51:28.380Z,9.72
2022-11-14T17:53:56.043Z,9.60
2022-11-14T17:56:25.734Z,9.54
2022-11-14T17:58:54.703Z,9.49
2022-11-14T18:01:25.008Z,9.45
2022-11-14T18:03:52.773Z,9.39
2022-11-14T18:06:22.200Z,9.38
2022-11-14T18:08:50.073Z,9.33
2022-11-14T18:11:18.709Z,9.32
2022-11-14T18:13:46.540Z,9.31
2022-11-14T18:16:17.454Z,9.29
2022-11-14T18:18:45.589Z,9.28
2022-11-14T18:21:19.304Z,9.28
2022-11-14T18:23:54.750Z,9.26
2022-11-14T18:26:28.489Z,9.24
2022-11-14T18:28:57.777Z,9.23
2022-11-14T18:31:26.529Z,9.21
2022-11-14T18:33:54.445Z,9.19
2022-11-14T18:36:22.751Z,9.18
2022-11-14T18:38:50.454Z,9.15
2022-11-14T18:41:21.982Z,9.11
2022-11-14T18:43:49.801Z,9.08
2022-11-14T18:46:20.752Z,9.05
2022-11-14T18:48:52.971Z,8.97
2022-11-14T18:51:23.548Z,8.93
2022-11-14T18:53:52.427Z,8.90
2022-11-14T18:56:22.791Z,8.88
2022-11-14T18:58:54.514Z,8.87
2022-11-14T19:01:26.097Z,8.85
2022-11-14T19:03:57.627Z,8.79
2022-11-14T19:06:25.403Z,8.65
2022-11-14T19:09:11.105Z,8.62
2022-11-14T19:11:58.178Z,8.56
2022-11-14T19:14:25.971Z,8.52
2022-11-14T19:16:53.941Z,8.46
2022-11-14T19:19:21.773Z,8.40
2022-11-14T19:21:53.508Z,8.33
2022-11-14T19:24:21.126Z,8.31
2022-11-14T19:26:48.988Z,8.19
2022-11-14T19:29:16.881Z,8.13
2022-11-14T19:31:44.705Z,8.07
2022-11-14T19:34:12.384Z,8.04
2022-11-14T19:39:27.783Z,7.98
2022-11-14T19:41:55.464Z,7.96
2022-11-14T19:44:23.090Z,7.94
2022-11-14T19:46:50.904Z,7.95
2022-11-14T19:49:18.544Z,7.95
2022-11-14T19:51:46.295Z,7.99
2022-11-14T19:54:14.060Z,7.92
2022-11-14T19:56:41.914Z,7.88
2022-11-14T19:59:14.351Z,7.87
2022-11-14T20:01:43.126Z,7.89
2022-11-14T20:04:13.447Z,7.92
2022-11-14T20:06:42.685Z,7.86
2022-11-14T20:09:11.574Z,7.83
2022-11-14T20:11:39.367Z,7.76
2022-11-14T20:14:07.300Z,7.68
2022-11-14T20:16:37.940Z,7.72
2022-11-14T20:19:06.078Z,7.70
2022-11-14T20:21:35.237Z,7.74
2022-11-14T20:24:03.290Z,7.76
2022-11-14T20:26:30.993Z,7.80
2022-11-14T20:29:00.135Z,7.80
2022-11-14T20:31:30.603Z,7.81
2022-11-14T20:33:58.308Z,7.79
2022-11-14T20:36:35.365Z,7.83
2022-11-14T20:39:15.443Z,7.88
2022-11-14T20:41:43.113Z,7.90
2022-11-14T20:44:10.875Z,7.96
2022-11-14T20:46:38.629Z,8.00
2022-11-14T20:49:08.201Z,8.02
2022-11-14T20:51:37.667Z,8.09
2022-11-14T20:54:05.429Z,8.13
2022-11-14T20:56:33.116Z,8.19
2022-11-14T20:59:00.810Z,8.19
2022-11-14T21:01:29.651Z,8.27
2022-11-14T21:03:57.388Z,8.31
2022-11-14T21:06:25.024Z,8.35
2022-11-14T21:08:52.638Z,8.40
2022-11-14T21:11:20.549Z,8.43
2022-11-14T21:13:57.216Z,8.44
2022-11-14T21:16:28.569Z,8.49
2022-11-14T21:18:56.661Z,8.50
2022-11-14T21:21:25.979Z,8.55
2022-11-14T21:23:54.312Z,8.56
2022-11-14T21:26:30.219Z,8.54
2022-11-14T21:29:06.355Z,8.55
2022-11-14T21:31:37.410Z,8.50
2022-11-14T21:34:08.003Z,8.49
2022-11-14T21:36:45.805Z,8.45
2022-11-14T21:39:16.289Z,8.39
2022-11-14T21:41:45.325Z,8.26
2022-11-14T21:44:15.531Z,8.22
2022-11-14T21:46:43.795Z,8.07
2022-11-14T21:49:11.518Z,8.04
2022-11-14T21:51:39.201Z,8.00
2022-11-14T21:54:07.511Z,8.03
2022-11-14T21:56:36.749Z,7.98
2022-11-14T21:59:14.708Z,7.96
2022-11-14T22:02:03.420Z,7.94
2022-11-14T22:04:32.569Z,7.90
2022-11-14T22:07:08.017Z,7.91
2022-11-14T22:09:41.079Z,7.92
2022-11-14T22:12:11.863Z,7.95
2022-11-14T22:14:39.516Z,7.98
2022-11-14T22:17:07.167Z,8.03
2022-11-14T22:19:34.837Z,8.04
2022-11-14T22:22:02.545Z,8.03
2022-11-14T22:24:30.189Z,8.04
2022-11-14T22:26:57.831Z,8.03
2022-11-14T22:29:25.469Z,7.92
2022-11-14T22:31:54.005Z,7.82
2022-11-14T22:34:21.627Z,7.80
2022-11-14T22:36:49.268Z,7.77
2022-11-14T22:39:16.863Z,7.71
2022-11-14T22:41:44.584Z,7.73
2022-11-14T22:44:12.301Z,7.67
2022-11-14T22:46:40.206Z,7.68
2022-11-14T22:49:07.872Z,7.68
2022-11-14T22:51:35.565Z,7.70
2022-11-14T22:54:03.204Z,7.67
2022-11-14T22:56:30.998Z,7.63
2022-11-14T22:59:00.637Z,7.65
2022-11-14T23:01:33.489Z,7.65
2022-11-14T23:04:04.017Z,7.66
2022-11-14T23:06:34.372Z,7.68
2022-11-14T23:09:03.530Z,7.65
2022-11-14T23:11:33.180Z,7.65
2022-11-14T23:14:02.028Z,7.66
2022-11-14T23:16:33.387Z,7.62
2022-11-14T23:19:03.386Z,7.57
2022-11-14T23:21:34.292Z,7.58
2022-11-14T23:24:07.979Z,7.57
2022-11-14T23:26:35.789Z,7.58
2022-11-14T23:29:04.193Z,7.50
2022-11-14T23:31:31.883Z,7.47
2022-11-14T23:33:59.672Z,7.48
2022-11-14T23:36:27.326Z,7.45
2022-11-14T23:38:55.170Z,7.40
2022-11-14T23:41:26.457Z,7.36
2022-11-14T23:43:54.478Z,7.37
2022-11-14T23:46:22.333Z,7.36
2022-11-14T23:48:50.236Z,7.37
2022-11-14T23:51:18.588Z,7.38
2022-11-14T23:53:46.384Z,7.36
2022-11-14T23:56:14.949Z,7.33
2022-11-14T23:58:42.975Z,7.26
